sensor_id;sensor_type;location;lat;lon;timestamp;pressure;altitude;pressure_sealevel;temperature;humidity
29169;BME280;16219;42.864;23.360;2023-02-23T00:01:12;95749.06;;;3.68;100.00
29169;BME280;16219;42.864;23.360;2023-02-23T00:03:40;95750.59;;;3.69;100.00
29169;BME280;16219;42.864;23.360;2023-02-23T00:06:09;95750.63;;;3.64;100.00
29169;BME280;16219;42.864;23.360;2023-02-23T00:08:37;95757.19;;;3.61;100.00
29169;BME280;16219;42.864;23.360;2023-02-23T00:11:05;95754.03;;;3.59;100.00
29169;BME280;16219;42.864;23.360;2023-02-23T00:13:33;95723.06;;;3.42;100.00
29169;BME280;16219;42.864;23.360;2023-02-23T00:16:06;95763.94;;;3.62;100.00
29169;BME280;16219;42.864;23.360;2023-02-23T00:18:34;95754.03;;;3.64;100.00
29169;BME280;16219;42.864;23.360;2023-02-23T00:21:12;95764.22;;;3.66;100.00
29169;BME280;16219;42.864;23.360;2023-02-23T00:23:41;95767.38;;;3.58;100.00
29169;BME280;16219;42.864;23.360;2023-02-23T00:26:10;95764.75;;;3.47;100.00
29169;BME280;16219;42.864;23.360;2023-02-23T00:28:39;95765.28;;;3.49;100.00
29169;BME280;16219;42.864;23.360;2023-02-23T00:31:08;95765.81;;;3.46;100.00
29169;BME280;16219;42.864;23.360;2023-02-23T00:33:37;95771.06;;;3.36;100.00
29169;BME280;16219;42.864;23.360;2023-02-23T00:36:06;95736.19;;;3.07;100.00
29169;BME280;16219;42.864;23.360;2023-02-23T00:38:36;95761.69;;;3.30;100.00
29169;BME280;16219;42.864;23.360;2023-02-23T00:41:06;95760.63;;;3.36;100.00
29169;BME280;16219;42.864;23.360;2023-02-23T00:43:35;95763.50;;;3.35;100.00
29169;BME280;16219;42.864;23.360;2023-02-23T00:46:03;95758.03;;;3.31;100.00
29169;BME280;16219;42.864;23.360;2023-02-23T00:48:34;95759.59;;;3.32;100.00
29169;BME280;16219;42.864;23.360;2023-02-23T00:51:03;95762.47;;;3.31;100.00
29169;BME280;16219;42.864;23.360;2023-02-23T00:53:32;95761.19;;;3.28;100.00
29169;BME280;16219;42.864;23.360;2023-02-23T00:56:02;95757.50;;;3.29;100.00
29169;BME280;16219;42.864;23.360;2023-02-23T00:58:30;95743.22;;;3.11;100.00
29169;BME280;16219;42.864;23.360;2023-02-23T01:00:57;95760.41;;;3.17;100.00
29169;BME280;16219;42.864;23.360;2023-02-23T01:03:25;95742.97;;;3.03;100.00
29169;BME280;16219;42.864;23.360;2023-02-23T01:05:52;95760.66;;;3.16;100.00
29169;BME280;16219;42.864;23.360;2023-02-23T01:08:21;95738.28;;;2.94;100.00
29169;BME280;16219;42.864;23.360;2023-02-23T01:10:48;95757.56;;;3.09;100.00
29169;BME280;16219;42.864;23.360;2023-02-23T01:13:20;95761.19;;;3.13;100.00
29169;BME280;16219;42.864;23.360;2023-02-23T01:15:48;95749.47;;;3.15;100.00
29169;BME280;16219;42.864;23.360;2023-02-23T01:18:18;95758.84;;;3.11;100.00
29169;BME280;16219;42.864;23.360;2023-02-23T01:20:46;95757.03;;;3.07;100.00
29169;BME280;16219;42.864;23.360;2023-02-23T01:23:14;95754.69;;;3.05;100.00
29169;BME280;16219;42.864;23.360;2023-02-23T01:25:43;95760.44;;;3.02;100.00
29169;BME280;16219;42.864;23.360;2023-02-23T01:28:11;95752.63;;;2.87;100.00
29169;BME280;16219;42.864;23.360;2023-02-23T01:30:39;95759.38;;;2.88;100.00
29169;BME280;16219;42.864;23.360;2023-02-23T01:33:06;95750.28;;;2.95;100.00
29169;BME280;16219;42.864;23.360;2023-02-23T01:35:34;95753.63;;;3.01;100.00
29169;BME280;16219;42.864;23.360;2023-02-23T01:38:01;95757.56;;;3.04;100.00
29169;BME280;16219;42.864;23.360;2023-02-23T01:40:29;95757.03;;;2.96;100.00
29169;BME280;16219;42.864;23.360;2023-02-23T01:42:58;95735.16;;;2.82;100.00
29169;BME280;16219;42.864;23.360;2023-02-23T01:45:31;95753.41;;;2.97;100.00
29169;BME280;16219;42.864;23.360;2023-02-23T01:48:05;95752.09;;;2.90;100.00
29169;BME280;16219;42.864;23.360;2023-02-23T01:50:42;95750.03;;;2.87;100.00
29169;BME280;16219;42.864;23.360;2023-02-23T01:53:12;95750.28;;;2.90;100.00
29169;BME280;16219;42.864;23.360;2023-02-23T01:55:40;95756.53;;;2.89;100.00
29169;BME280;16219;42.864;23.360;2023-02-23T01:58:11;95756.00;;;2.92;100.00
29169;BME280;16219;42.864;23.360;2023-02-23T02:00:43;95758.88;;;2.91;100.00
29169;BME280;16219;42.864;23.360;2023-02-23T02:03:16;95750.81;;;2.82;100.00
29169;BME280;16219;42.864;23.360;2023-02-23T02:05:49;95754.44;;;2.86;100.00
29169;BME280;16219;42.864;23.360;2023-02-23T02:08:17;95758.63;;;2.87;100.00
29169;BME280;16219;42.864;23.360;2023-02-23T02:10:48;95758.88;;;2.91;100.00
29169;BME280;16219;42.864;23.360;2023-02-23T02:13:23;95755.75;;;2.84;100.00
29169;BME280;16219;42.864;23.360;2023-02-23T02:16:28;95755.50;;;2.85;100.00
29169;BME280;16219;42.864;23.360;2023-02-23T02:22:45;95759.94;;;2.64;100.00
29169;BME280;16219;42.864;23.360;2023-02-23T02:25:44;95761.22;;;2.67;100.00
29169;BME280;16219;42.864;23.360;2023-02-23T02:40:30;95727.09;;;2.43;100.00
29169;BME280;16219;42.864;23.360;2023-02-23T02:43:06;95761.22;;;2.62;100.00
29169;BME280;16219;42.864;23.360;2023-02-23T02:45:42;95754.97;;;2.63;100.00
29169;BME280;16219;42.864;23.360;2023-02-23T02:48:17;95762.28;;;2.56;100.00
29169;BME280;16219;42.864;23.360;2023-02-23T02:50:53;95764.34;;;2.59;100.00
29169;BME280;16219;42.864;23.360;2023-02-23T02:53:27;95759.66;;;2.56;100.00
29169;BME280;16219;42.864;23.360;2023-02-23T02:55:57;95761.22;;;2.52;100.00
29169;BME280;16219;42.864;23.360;2023-02-23T02:58:26;95754.69;;;2.54;100.00
29169;BME280;16219;42.864;23.360;2023-02-23T03:01:04;95762.53;;;2.59;100.00
29169;BME280;16219;42.864;23.360;2023-02-23T03:03:50;95751.59;;;2.52;100.00
29169;BME280;16219;42.864;23.360;2023-02-23T03:06:42;95755.75;;;2.58;100.00
29169;BME280;16219;42.864;23.360;2023-02-23T03:09:34;95757.06;;;2.56;100.00
29169;BME280;16219;42.864;23.360;2023-02-23T03:12:27;95747.16;;;2.42;100.00
29169;BME280;16219;42.864;23.360;2023-02-23T03:15:27;95755.47;;;2.55;100.00
29169;BME280;16219;42.864;23.360;2023-02-23T03:18:37;95758.63;;;2.52;100.00
29169;BME280;16219;42.864;23.360;2023-02-23T03:21:28;95754.69;;;2.44;100.00
29169;BME280;16219;42.864;23.360;2023-02-23T03:24:22;95760.91;;;2.17;100.00
29169;BME280;16219;42.864;23.360;2023-02-23T03:27:22;95756.22;;;2.24;100.00
29169;BME280;16219;42.864;23.360;2023-02-23T03:30:16;95761.69;;;2.33;100.00
29169;BME280;16219;42.864;23.360;2023-02-23T03:33:07;95750.25;;;2.24;100.00
29169;BME280;16219;42.864;23.360;2023-02-23T03:35:58;95763.00;;;2.31;100.00
29169;BME280;16219;42.864;23.360;2023-02-23T03:38:49;95766.13;;;2.28;100.00
29169;BME280;16219;42.864;23.360;2023-02-23T03:41:39;95769.00;;;2.26;100.00
29169;BME280;16219;42.864;23.360;2023-02-23T03:44:30;95770.28;;;2.29;100.00
29169;BME280;16219;42.864;23.360;2023-02-23T03:47:16;95772.66;;;2.30;100.00
29169;BME280;16219;42.864;23.360;2023-02-23T03:50:04;95776.25;;;2.24;100.00
29169;BME280;16219;42.864;23.360;2023-02-23T03:52:54;95773.94;;;2.22;100.00
29169;BME280;16219;42.864;23.360;2023-02-23T03:55:42;95773.16;;;2.22;100.00
29169;BME280;16219;42.864;23.360;2023-02-23T03:58:32;95777.31;;;2.18;100.00
29169;BME280;16219;42.864;23.360;2023-02-23T04:01:22;95775.22;;;2.15;100.00
29169;BME280;16219;42.864;23.360;2023-02-23T04:04:09;95781.47;;;2.14;100.00
29169;BME280;16219;42.864;23.360;2023-02-23T04:06:55;95781.97;;;2.16;100.00
29169;BME280;16219;42.864;23.360;2023-02-23T04:09:41;95785.09;;;2.13;100.00
29169;BME280;16219;42.864;23.360;2023-02-23T04:12:25;95784.84;;;2.19;100.00
29169;BME280;16219;42.864;23.360;2023-02-23T04:15:18;95765.78;;;2.04;100.00
29169;BME280;16219;42.864;23.360;2023-02-23T04:17:46;95775.19;;;2.10;100.00
29169;BME280;16219;42.864;23.360;2023-02-23T04:20:13;95770.50;;;2.02;100.00
29169;BME280;16219;42.864;23.360;2023-02-23T04:22:40;95759.50;;;1.79;100.00
29169;BME280;16219;42.864;23.360;2023-02-23T04:25:08;95773.09;;;2.02;100.00
29169;BME280;16219;42.864;23.360;2023-02-23T04:27:36;95762.41;;;2.03;100.00
29169;BME280;16219;42.864;23.360;2023-02-23T04:30:04;95768.59;;;1.87;100.00
29169;BME280;16219;42.864;23.360;2023-02-23T04:32:31;95767.88;;;1.91;100.00
29169;BME280;16219;42.864;23.360;2023-02-23T04:35:00;95732.44;;;1.75;100.00
29169;BME280;16219;42.864;23.360;2023-02-23T04:37:27;95758.25;;;1.92;100.00
29169;BME280;16219;42.864;23.360;2023-02-23T04:39:54;95772.31;;;2.06;100.00
29169;BME280;16219;42.864;23.360;2023-02-23T04:42:21;95771.81;;;2.04;100.00
29169;BME280;16219;42.864;23.360;2023-02-23T04:44:48;95771.25;;;1.97;100.00
29169;BME280;16219;42.864;23.360;2023-02-23T04:47:17;95773.59;;;1.98;100.00
29169;BME280;16219;42.864;23.360;2023-02-23T04:49:44;95765.00;;;1.88;100.00
29169;BME280;16219;42.864;23.360;2023-02-23T04:52:12;95768.88;;;1.90;100.00
29169;BME280;16219;42.864;23.360;2023-02-23T04:54:40;95783.47;;;1.91;100.00
29169;BME280;16219;42.864;23.360;2023-02-23T04:57:08;95779.25;;;1.80;100.00
29169;BME280;16219;42.864;23.360;2023-02-23T04:59:35;95789.69;;;1.85;100.00
29169;BME280;16219;42.864;23.360;2023-02-23T05:02:02;95779.78;;;1.82;100.00
29169;BME280;16219;42.864;23.360;2023-02-23T05:04:29;95783.44;;;1.81;100.00
29169;BME280;16219;42.864;23.360;2023-02-23T05:06:56;95759.41;;;1.59;100.00
29169;BME280;16219;42.864;23.360;2023-02-23T05:09:25;95785.22;;;1.75;100.00
29169;BME280;16219;42.864;23.360;2023-02-23T05:11:52;95782.38;;;1.77;100.00
29169;BME280;16219;42.864;23.360;2023-02-23T05:14:20;95787.06;;;1.80;100.00
29169;BME280;16219;42.864;23.360;2023-02-23T05:16:47;95788.13;;;1.84;100.00
29169;BME280;16219;42.864;23.360;2023-02-23T05:19:14;95789.69;;;1.85;100.00
29169;BME280;16219;42.864;23.360;2023-02-23T05:21:41;95792.28;;;1.85;100.00
29169;BME280;16219;42.864;23.360;2023-02-23T05:24:09;95796.72;;;1.85;100.00
29169;BME280;16219;42.864;23.360;2023-02-23T05:26:37;95791.78;;;1.88;100.00
29169;BME280;16219;42.864;23.360;2023-02-23T05:29:04;95795.16;;;1.89;100.00
29169;BME280;16219;42.864;23.360;2023-02-23T05:31:31;95803.72;;;1.84;100.00
29169;BME280;16219;42.864;23.360;2023-02-23T05:33:58;95800.09;;;1.85;100.00
29169;BME280;16219;42.864;23.360;2023-02-23T05:36:28;95798.50;;;1.79;100.00
29169;BME280;16219;42.864;23.360;2023-02-23T05:38:55;95805.53;;;1.79;100.00
29169;BME280;16219;42.864;23.360;2023-02-23T05:41:22;95802.66;;;1.80;100.00
29169;BME280;16219;42.864;23.360;2023-02-23T05:43:51;95805.28;;;1.80;100.00
29169;BME280;16219;42.864;23.360;2023-02-23T05:46:20;95817.72;;;1.78;100.00
29169;BME280;16219;42.864;23.360;2023-02-23T05:48:48;95822.47;;;1.86;100.00
29169;BME280;16219;42.864;23.360;2023-02-23T05:51:16;95785.16;;;1.65;100.00
29169;BME280;16219;42.864;23.360;2023-02-23T05:53:44;95817.25;;;1.86;100.00
29169;BME280;16219;42.864;23.360;2023-02-23T05:56:13;95830.81;;;1.88;100.00
29169;BME280;16219;42.864;23.360;2023-02-23T05:58:45;95802.59;;;1.70;100.00
29169;BME280;16219;42.864;23.360;2023-02-23T06:01:13;95835.44;;;1.81;100.00
29169;BME280;16219;42.864;23.360;2023-02-23T06:03:42;95834.97;;;1.94;100.00
29169;BME280;16219;42.864;23.360;2023-02-23T06:06:09;95830.34;;;2.07;100.00
29169;BME280;16219;42.864;23.360;2023-02-23T06:08:36;95812.38;;;2.00;100.00
29169;BME280;16219;42.864;23.360;2023-02-23T06:11:04;95834.78;;;2.16;100.00
29169;BME280;16219;42.864;23.360;2023-02-23T06:13:31;95842.38;;;2.28;100.00
29169;BME280;16219;42.864;23.360;2023-02-23T06:15:58;95842.66;;;2.32;100.00
29169;BME280;16219;42.864;23.360;2023-02-23T06:18:27;95823.66;;;2.31;100.00
29169;BME280;16219;42.864;23.360;2023-02-23T06:20:57;95846.09;;;2.53;100.00
29169;BME280;16219;42.864;23.360;2023-02-23T06:23:24;95844.00;;;2.55;100.00
29169;BME280;16219;42.864;23.360;2023-02-23T06:25:51;95848.75;;;2.68;100.00
29169;BME280;16219;42.864;23.360;2023-02-23T06:28:18;95846.88;;;2.58;100.00
29169;BME280;16219;42.864;23.360;2023-02-23T06:30:46;95848.47;;;2.69;100.00
29169;BME280;16219;42.864;23.360;2023-02-23T06:33:13;95853.44;;;2.91;100.00
29169;BME280;16219;42.864;23.360;2023-02-23T06:35:41;95831.28;;;2.84;100.00
29169;BME280;16219;42.864;23.360;2023-02-23T06:38:09;95832.88;;;2.95;100.00
29169;BME280;16219;42.864;23.360;2023-02-23T06:40:39;95852.41;;;3.18;100.00
29169;BME280;16219;42.864;23.360;2023-02-23T06:43:07;95850.31;;;3.30;100.00
29169;BME280;16219;42.864;23.360;2023-02-23T06:45:34;95857.88;;;3.42;100.00
29169;BME280;16219;42.864;23.360;2023-02-23T06:48:02;95851.88;;;3.51;100.00
29169;BME280;16219;42.864;23.360;2023-02-23T06:50:29;95835.19;;;3.53;100.00
29169;BME280;16219;42.864;23.360;2023-02-23T06:52:58;95838.28;;;3.60;100.00
29169;BME280;16219;42.864;23.360;2023-02-23T06:55:25;95843.47;;;3.75;100.00
29169;BME280;16219;42.864;23.360;2023-02-23T06:57:52;95825.25;;;3.70;100.00
29169;BME280;16219;42.864;23.360;2023-02-23T07:00:20;95851.25;;;4.00;100.00
29169;BME280;16219;42.864;23.360;2023-02-23T07:02:49;95850.69;;;4.09;100.00
29169;BME280;16219;42.864;23.360;2023-02-23T07:05:17;95847.75;;;4.25;100.00
29169;BME280;16219;42.864;23.360;2023-02-23T07:07:44;95840.41;;;4.28;100.00
29169;BME280;16219;42.864;23.360;2023-02-23T07:10:12;95828.88;;;4.39;100.00
29169;BME280;16219;42.864;23.360;2023-02-23T07:12:40;95838.97;;;4.56;100.00
29169;BME280;16219;42.864;23.360;2023-02-23T07:15:08;95842.00;;;4.73;100.00
29169;BME280;16219;42.864;23.360;2023-02-23T07:17:36;95843.22;;;4.86;100.00
29169;BME280;16219;42.864;23.360;2023-02-23T07:20:03;95819.19;;;4.84;100.00
29169;BME280;16219;42.864;23.360;2023-02-23T07:22:30;95836.56;;;5.04;100.00
29169;BME280;16219;42.864;23.360;2023-02-23T07:24:58;95821.41;;;5.00;100.00
29169;BME280;16219;42.864;23.360;2023-02-23T07:27:27;95843.47;;;5.23;100.00
29169;BME280;16219;42.864;23.360;2023-02-23T07:29:54;95845.75;;;5.35;100.00
29169;BME280;16219;42.864;23.360;2023-02-23T07:32:21;95834.63;;;5.48;100.00
29169;BME280;16219;42.864;23.360;2023-02-23T07:34:48;95804.78;;;5.49;100.00
29169;BME280;16219;42.864;23.360;2023-02-23T07:37:17;95810.38;;;5.67;100.00
29169;BME280;16219;42.864;23.360;2023-02-23T07:39:44;95830.31;;;5.87;100.00
29169;BME280;16219;42.864;23.360;2023-02-23T07:42:11;95824.31;;;6.10;100.00
29169;BME280;16219;42.864;23.360;2023-02-23T07:44:41;95824.75;;;6.17;100.00
29169;BME280;16219;42.864;23.360;2023-02-23T07:47:08;95792.44;;;6.03;100.00
29169;BME280;16219;42.864;23.360;2023-02-23T07:49:35;95821.09;;;6.37;100.00
29169;BME280;16219;42.864;23.360;2023-02-23T07:52:02;95818.78;;;6.55;100.00
29169;BME280;16219;42.864;23.360;2023-02-23T07:54:29;95824.09;;;6.68;100.00
29169;BME280;16219;42.864;23.360;2023-02-23T07:56:56;95804.59;;;6.74;100.00
29169;BME280;16219;42.864;23.360;2023-02-23T07:59:23;95804.66;;;6.88;100.00
29169;BME280;16219;42.864;23.360;2023-02-23T08:01:52;95810.63;;;7.08;100.00
29169;BME280;16219;42.864;23.360;2023-02-23T08:04:19;95807.34;;;7.16;100.00
29169;BME280;16219;42.864;23.360;2023-02-23T08:06:46;95794.00;;;7.31;100.00
29169;BME280;16219;42.864;23.360;2023-02-23T08:09:13;95811.63;;;7.58;100.00
29169;BME280;16219;42.864;23.360;2023-02-23T08:11:40;95799.69;;;7.66;100.00
29169;BME280;16219;42.864;23.360;2023-02-23T08:14:07;95810.19;;;7.93;100.00
29169;BME280;16219;42.864;23.360;2023-02-23T08:16:35;95808.16;;;8.04;100.00
29169;BME280;16219;42.864;23.360;2023-02-23T08:19:03;95810.75;;;8.18;100.00
29169;BME280;16219;42.864;23.360;2023-02-23T08:21:31;95809.75;;;8.27;100.00
29169;BME280;16219;42.864;23.360;2023-02-23T08:23:58;95806.28;;;8.46;100.00
29169;BME280;16219;42.864;23.360;2023-02-23T08:26:25;95813.22;;;8.64;100.00
29169;BME280;16219;42.864;23.360;2023-02-23T08:28:52;95807.16;;;8.77;100.00
29169;BME280;16219;42.864;23.360;2023-02-23T08:31:20;95813.94;;;8.92;100.00
29169;BME280;16219;42.864;23.360;2023-02-23T08:33:48;95811.19;;;8.97;100.00
29169;BME280;16219;42.864;23.360;2023-02-23T08:36:17;95809.31;;;9.20;100.00
29169;BME280;16219;42.864;23.360;2023-02-23T08:38:45;95783.88;;;9.16;100.00
29169;BME280;16219;42.864;23.360;2023-02-23T08:41:12;95796.78;;;9.48;100.00
29169;BME280;16219;42.864;23.360;2023-02-23T08:43:40;95799.03;;;9.72;100.00
29169;BME280;16219;42.864;23.360;2023-02-23T08:46:07;95803.13;;;9.87;100.00
29169;BME280;16219;42.864;23.360;2023-02-23T08:48:34;95789.22;;;9.95;100.00
29169;BME280;16219;42.864;23.360;2023-02-23T08:51:04;95799.66;;;10.18;100.00
29169;BME280;16219;42.864;23.360;2023-02-23T08:53:32;95799.66;;;10.18;100.00
29169;BME280;16219;42.864;23.360;2023-02-23T08:56:01;95767.41;;;10.21;100.00
29169;BME280;16219;42.864;23.360;2023-02-23T08:58:29;95797.75;;;10.58;100.00
29169;BME280;16219;42.864;23.360;2023-02-23T09:00:57;95795.72;;;10.81;100.00
29169;BME280;16219;42.864;23.360;2023-02-23T09:03:25;95795.56;;;10.95;100.00
29169;BME280;16219;42.864;23.360;2023-02-23T09:05:53;95796.00;;;11.14;100.00
29169;BME280;16219;42.864;23.360;2023-02-23T09:08:20;95787.31;;;11.14;100.00
29169;BME280;16219;42.864;23.360;2023-02-23T09:10:49;95788.53;;;11.25;100.00
29169;BME280;16219;42.864;23.360;2023-02-23T09:13:16;95784.00;;;11.43;100.00
29169;BME280;16219;42.864;23.360;2023-02-23T09:15:43;95766.56;;;11.50;100.00
29169;BME280;16219;42.864;23.360;2023-02-23T09:18:12;95787.47;;;11.73;100.00
29169;BME280;16219;42.864;23.360;2023-02-23T09:20:41;95781.09;;;11.83;100.00
29169;BME280;16219;42.864;23.360;2023-02-23T09:23:08;95769.38;;;11.92;100.00
29169;BME280;16219;42.864;23.360;2023-02-23T09:25:39;95786.19;;;12.17;100.00
29169;BME280;16219;42.864;23.360;2023-02-23T09:28:10;95787.69;;;12.27;100.00
29169;BME280;16219;42.864;23.360;2023-02-23T09:30:38;95786.50;;;12.45;98.13
29169;BME280;16219;42.864;23.360;2023-02-23T09:33:06;95777.13;;;12.48;97.71
29169;BME280;16219;42.864;23.360;2023-02-23T09:35:33;95763.75;;;12.44;92.90
29169;BME280;16219;42.864;23.360;2023-02-23T09:38:05;95781.84;;;12.63;93.18
29169;BME280;16219;42.864;23.360;2023-02-23T09:40:36;95778.81;;;12.73;93.97
29169;BME280;16219;42.864;23.360;2023-02-23T09:43:12;95783.38;;;12.85;92.16
29169;BME280;16219;42.864;23.360;2023-02-23T09:45:42;95781.91;;;12.96;88.97
29169;BME280;16219;42.864;23.360;2023-02-23T09:48:15;95765.53;;;12.94;86.29
29169;BME280;16219;42.864;23.360;2023-02-23T09:50:47;95777.34;;;13.18;91.67
29169;BME280;16219;42.864;23.360;2023-02-23T09:53:25;95776.56;;;13.17;89.86
29169;BME280;16219;42.864;23.360;2023-02-23T09:55:55;95768.13;;;13.03;86.35
29169;BME280;16219;42.864;23.360;2023-02-23T09:58:25;95774.22;;;13.16;88.69
29169;BME280;16219;42.864;23.360;2023-02-23T10:03:53;95772.56;;;13.44;82.34
29169;BME280;16219;42.864;23.360;2023-02-23T10:06:22;95770.03;;;13.48;84.10
29169;BME280;16219;42.864;23.360;2023-02-23T10:08:59;95767.06;;;13.62;80.56
29169;BME280;16219;42.864;23.360;2023-02-23T10:11:34;95768.97;;;13.73;82.25
29169;BME280;16219;42.864;23.360;2023-02-23T10:14:17;95757.25;;;13.87;74.48
29169;BME280;16219;42.864;23.360;2023-02-23T10:16:55;95759.81;;;13.95;80.95
29169;BME280;16219;42.864;23.360;2023-02-23T10:19:31;95759.56;;;14.13;72.03
29169;BME280;16219;42.864;23.360;2023-02-23T10:22:04;95735.59;;;13.97;69.45
29169;BME280;16219;42.864;23.360;2023-02-23T10:24:38;95752.50;;;14.17;71.85
29169;BME280;16219;42.864;23.360;2023-02-23T10:27:09;95713.94;;;13.95;73.08
29169;BME280;16219;42.864;23.360;2023-02-23T10:29:45;95728.97;;;14.15;73.81
29169;BME280;16219;42.864;23.360;2023-02-23T10:32:19;95742.97;;;14.28;67.00
29169;BME280;16219;42.864;23.360;2023-02-23T10:34:52;95734.53;;;14.38;70.03
29169;BME280;16219;42.864;23.360;2023-02-23T10:37:21;95738.53;;;14.44;68.82
29169;BME280;16219;42.864;23.360;2023-02-23T10:39:49;95733.28;;;14.48;65.49
29169;BME280;16219;42.864;23.360;2023-02-23T10:42:20;95721.63;;;14.49;67.84
29169;BME280;16219;42.864;23.360;2023-02-23T10:44:49;95720.59;;;14.54;66.29
29169;BME280;16219;42.864;23.360;2023-02-23T10:47:18;95728.34;;;14.59;63.86
29169;BME280;16219;42.864;23.360;2023-02-23T10:49:48;95726.50;;;14.75;64.36
29169;BME280;16219;42.864;23.360;2023-02-23T10:52:19;95711.44;;;14.79;61.28
29169;BME280;16219;42.864;23.360;2023-02-23T10:54:49;95706.81;;;14.76;61.36
29169;BME280;16219;42.864;23.360;2023-02-23T10:57:22;95709.81;;;14.74;61.18
29169;BME280;16219;42.864;23.360;2023-02-23T11:00:04;95705.81;;;14.96;60.65
29169;BME280;16219;42.864;23.360;2023-02-23T11:02:33;95698.22;;;15.11;62.33
29169;BME280;16219;42.864;23.360;2023-02-23T11:05:02;95694.88;;;15.14;60.07
29169;BME280;16219;42.864;23.360;2023-02-23T11:07:31;95690.53;;;15.21;60.57
29169;BME280;16219;42.864;23.360;2023-02-23T11:10:19;95689.06;;;15.24;59.67
29169;BME280;16219;42.864;23.360;2023-02-23T11:12:46;95663.66;;;15.11;58.49
29169;BME280;16219;42.864;23.360;2023-02-23T11:15:27;95685.81;;;15.31;57.71
29169;BME280;16219;42.864;23.360;2023-02-23T11:17:55;95681.34;;;15.50;56.80
29169;BME280;16219;42.864;23.360;2023-02-23T11:20:30;95679.69;;;15.62;55.87
29169;BME280;16219;42.864;23.360;2023-02-23T11:23:00;95677.25;;;15.69;56.39
29169;BME280;16219;42.864;23.360;2023-02-23T11:25:34;95672.78;;;15.73;56.23
29169;BME280;16219;42.864;23.360;2023-02-23T11:28:03;95668.91;;;15.70;55.28
29169;BME280;16219;42.864;23.360;2023-02-23T11:30:35;95664.34;;;15.71;56.12
29169;BME280;16219;42.864;23.360;2023-02-23T11:33:13;95661.97;;;15.66;54.47
29169;BME280;16219;42.864;23.360;2023-02-23T11:35:42;95663.16;;;15.53;54.54
29169;BME280;16219;42.864;23.360;2023-02-23T11:38:20;95657.84;;;15.53;54.05
29169;BME280;16219;42.864;23.360;2023-02-23T11:40:58;95655.13;;;15.65;55.92
29169;BME280;16219;42.864;23.360;2023-02-23T11:43:25;95655.78;;;15.78;54.72
29169;BME280;16219;42.864;23.360;2023-02-23T11:45:59;95630.22;;;15.73;53.63
29169;BME280;16219;42.864;23.360;2023-02-23T11:48:31;95653.78;;;16.10;52.95
29169;BME280;16219;42.864;23.360;2023-02-23T11:50:59;95655.72;;;16.29;51.92
29169;BME280;16219;42.864;23.360;2023-02-23T11:53:29;95646.53;;;16.45;52.60
29169;BME280;16219;42.864;23.360;2023-02-23T11:55:58;95647.34;;;16.69;51.81
29169;BME280;16219;42.864;23.360;2023-02-23T11:58:33;95642.34;;;16.83;51.45
29169;BME280;16219;42.864;23.360;2023-02-23T12:01:05;95641.59;;;16.86;50.20
29169;BME280;16219;42.864;23.360;2023-02-23T12:03:37;95639.78;;;16.90;49.40
29169;BME280;16219;42.864;23.360;2023-02-23T12:06:08;95641.56;;;17.06;49.34
29169;BME280;16219;42.864;23.360;2023-02-23T12:08:39;95646.59;;;17.11;47.75
29169;BME280;16219;42.864;23.360;2023-02-23T12:11:12;95644.06;;;17.18;47.85
29169;BME280;16219;42.864;23.360;2023-02-23T12:13:44;95636.00;;;17.14;47.21
29169;BME280;16219;42.864;23.360;2023-02-23T12:16:17;95634.63;;;17.24;47.89
29169;BME280;16219;42.864;23.360;2023-02-23T12:18:49;95635.34;;;17.21;46.57
29169;BME280;16219;42.864;23.360;2023-02-23T12:21:29;95630.03;;;17.21;47.97
29169;BME280;16219;42.864;23.360;2023-02-23T12:24:13;95620.47;;;16.97;46.28
29169;BME280;16219;42.864;23.360;2023-02-23T12:26:46;95612.63;;;16.62;46.35
29169;BME280;16219;42.864;23.360;2023-02-23T12:29:20;95629.22;;;16.55;47.94
29169;BME280;16219;42.864;23.360;2023-02-23T12:31:54;95619.88;;;16.65;47.64
29169;BME280;16219;42.864;23.360;2023-02-23T12:34:32;95625.56;;;16.63;49.14
29169;BME280;16219;42.864;23.360;2023-02-23T12:37:08;95624.94;;;16.70;49.13
29169;BME280;16219;42.864;23.360;2023-02-23T12:39:45;95621.56;;;16.73;48.36
29169;BME280;16219;42.864;23.360;2023-02-23T12:42:19;95616.13;;;16.66;48.09
29169;BME280;16219;42.864;23.360;2023-02-23T12:44:52;95619.94;;;16.68;49.25
29169;BME280;16219;42.864;23.360;2023-02-23T12:47:28;95616.94;;;16.70;49.67
29169;BME280;16219;42.864;23.360;2023-02-23T12:50:01;95615.25;;;16.81;48.77
29169;BME280;16219;42.864;23.360;2023-02-23T12:52:35;95614.69;;;16.91;48.89
29169;BME280;16219;42.864;23.360;2023-02-23T12:55:05;95611.66;;;16.93;48.68
29169;BME280;16219;42.864;23.360;2023-02-23T12:57:41;95604.97;;;17.03;48.12
29169;BME280;16219;42.864;23.360;2023-02-23T13:00:35;95611.34;;;16.98;47.00
29169;BME280;16219;42.864;23.360;2023-02-23T13:03:23;95604.63;;;17.04;46.96
29169;BME280;16219;42.864;23.360;2023-02-23T13:06:01;95610.81;;;17.12;47.42
29169;BME280;16219;42.864;23.360;2023-02-23T13:08:54;95607.88;;;17.17;46.10
29169;BME280;16219;42.864;23.360;2023-02-23T13:11:37;95616.56;;;17.14;47.47
29169;BME280;16219;42.864;23.360;2023-02-23T13:14:12;95613.84;;;17.10;47.85
29169;BME280;16219;42.864;23.360;2023-02-23T13:16:43;95608.06;;;17.05;49.10
29169;BME280;16219;42.864;23.360;2023-02-23T13:19:17;95616.63;;;16.94;50.14
29169;BME280;16219;42.864;23.360;2023-02-23T13:21:51;95615.09;;;16.93;51.52
29169;BME280;16219;42.864;23.360;2023-02-23T13:24:23;95620.28;;;16.86;51.54
29169;BME280;16219;42.864;23.360;2023-02-23T13:26:58;95619.47;;;16.82;52.63
29169;BME280;16219;42.864;23.360;2023-02-23T13:29:32;95604.47;;;16.55;52.36
29169;BME280;16219;42.864;23.360;2023-02-23T13:32:03;95624.13;;;16.46;53.58
29169;BME280;16219;42.864;23.360;2023-02-23T13:34:38;95613.31;;;16.39;54.04